Time;durP1;ratioP1;P1;durP2;ratioP2;P2;SDS_P1;SDS_P2;PMS_P1;PMS_P2;Temp;Humidity;BMP_temperature;BMP_pressure;BME280_temperature;BME280_humidity;BME280_pressure;Samples;Min_cycle;Max_cycle;Signal;HPM_P1;HPM_P2
2020/04/06 00:02:44;;;;;;;7.1;5;;;;;;;6.58;68.03711;940.8488;;;;
2020/04/06 00:05:10;;;;;;;31.4;17.3;;;;;;;6.57;67.88867;940.8582;;;;
2020/04/06 00:07:35;;;;;;;13;8;;;;;;;6.55;67.74023;940.8688;;;;
2020/04/06 00:10:00;;;;;;;22.4;12.3;;;;;;;6.43;67.96875;940.8334;;;;
2020/04/06 00:12:25;;;;;;;6;4.7;;;;;;;6.36;68.09277;940.8622;;;;
2020/04/06 00:14:54;;;;;;;13.1;8.1;;;;;;;6.3;67.94727;940.8619;;;;
2020/04/06 00:17:19;;;;;;;3.8;3.4;;;;;;;6.19;67.72656;940.8275;;;;
2020/04/06 00:19:44;;;;;;;24.5;13.5;;;;;;;6.04;68.15625;940.8666;;;;
2020/04/06 00:22:09;;;;;;;5.9;3.7;;;;;;;5.98;68.45117;940.8683;;;;
2020/04/06 00:24:34;;;;;;;6;3.4;;;;;;;5.8;68.48926;940.8616;;;;
2020/04/06 00:27:00;;;;;;;6.9;3.5;;;;;;;5.64;69.53613;940.9394;;;;
2020/04/06 00:29:25;;;;;;;7.9;4.2;;;;;;;5.82;69.21582;940.8417;;;;
2020/04/06 00:31:50;;;;;;;9.5;4.6;;;;;;;5.81;69.10059;940.8951;;;;
2020/04/06 00:34:15;;;;;;;4.6;3.5;;;;;;;5.72;69.05273;940.9363;;;;
2020/04/06 00:36:40;;;;;;;4.8;3.5;;;;;;;5.67;69.05469;940.9316;;;;
2020/04/06 00:39:05;;;;;;;6;4.3;;;;;;;5.6;68.93164;940.8864;;;;
2020/04/06 00:41:30;;;;;;;5.6;4.6;;;;;;;5.64;68.8252;940.8738;;;;
2020/04/06 00:43:55;;;;;;;6.1;4.4;;;;;;;5.74;68.35547;940.9495;;;;
2020/04/06 00:46:20;;;;;;;6.7;4.5;;;;;;;5.74;68.34375;940.9107;;;;
2020/04/06 00:48:45;;;;;;;6.7;4.1;;;;;;;5.59;68.87402;940.9073;;;;
2020/04/06 00:51:10;;;;;;;5.2;3.9;;;;;;;5.73;68.08301;940.8733;;;;
2020/04/06 00:53:36;;;;;;;6.8;4.2;;;;;;;5.81;67.65527;940.7672;;;;
2020/04/06 00:56:01;;;;;;;6.6;4;;;;;;;5.83;67.4209;940.8793;;;;
2020/04/06 00:58:26;;;;;;;4.9;3.8;;;;;;;5.88;67.57617;940.8998;;;;
2020/04/06 01:00:52;;;;;;;4.7;3.4;;;;;;;5.95;67.17969;940.887;;;;
2020/04/06 01:03:17;;;;;;;5.9;3.7;;;;;;;5.84;67.64844;940.9363;;;;
2020/04/06 01:05:42;;;;;;;5.6;3.9;;;;;;;5.92;67.33398;940.9091;;;;
2020/04/06 01:08:07;;;;;;;10.5;7.9;;;;;;;5.89;67.375;940.942;;;;
2020/04/06 01:10:32;;;;;;;5.4;4.3;;;;;;;5.82;67.57813;940.8939;;;;
2020/04/06 01:12:57;;;;;;;7.3;4.3;;;;;;;5.74;67.65723;940.9267;;;;
2020/04/06 01:15:22;;;;;;;4.3;3.5;;;;;;;5.74;67.34082;940.9592;;;;
2020/04/06 01:17:47;;;;;;;5.9;3.8;;;;;;;5.59;67.37305;940.9958;;;;
2020/04/06 01:20:12;;;;;;;7.4;5;;;;;;;5.56;68.97168;941.0446;;;;
2020/04/06 01:22:37;;;;;;;5.1;3.9;;;;;;;5.56;68.40723;941.0225;;;;
2020/04/06 01:25:02;;;;;;;4.7;3.8;;;;;;;5.53;68.0625;941.1092;;;;
2020/04/06 01:27:28;;;;;;;5.5;4.1;;;;;;;5.59;67.8457;941.0912;;;;
2020/04/06 01:29:53;;;;;;;7.9;4;;;;;;;5.63;67.75098;941.0597;;;;
2020/04/06 01:32:18;;;;;;;6.2;4;;;;;;;5.61;67.81641;941.0363;;;;
2020/04/06 01:34:43;;;;;;;6.5;4.1;;;;;;;5.67;67.55371;941.1542;;;;
2020/04/06 01:37:08;;;;;;;6.3;3.9;;;;;;;5.58;67.71973;941.1739;;;;
2020/04/06 01:39:33;;;;;;;5.7;3.5;;;;;;;5.57;67.66211;941.1411;;;;
2020/04/06 01:41:58;;;;;;;7.6;3.8;;;;;;;5.52;67.73242;941.1932;;;;
2020/04/06 01:44:24;;;;;;;5.6;3.6;;;;;;;5.45;67.53027;941.1856;;;;
2020/04/06 01:47:30;;;;;;;4.4;3.3;;;;;;;5.4;67.84961;941.2371;;;;
2020/04/06 01:49:17;;;;;;;6.1;3.8;;;;;;;5.2;67.93164;941.2177;;;;
2020/04/06 01:51:39;;;;;;;5;3.6;;;;;;;4.99;68.65137;941.2534;;;;
2020/04/06 01:54:04;;;;;;;4.3;3;;;;;;;5.05;68.53906;941.1989;;;;
2020/04/06 01:56:29;;;;;;;4.9;3.4;;;;;;;5.19;67.94043;941.2969;;;;
2020/04/06 01:58:54;;;;;;;4.6;3.2;;;;;;;5.26;67.4668;941.2679;;;;
2020/04/06 02:01:19;;;;;;;5.9;3.2;;;;;;;5.26;67.60254;941.2885;;;;
2020/04/06 02:03:46;;;;;;;6.2;3.6;;;;;;;5.22;67.93457;941.3441;;;;
2020/04/06 02:06:12;;;;;;;3.8;3.1;;;;;;;5.32;67.75879;941.2449;;;;
2020/04/06 02:08:39;;;;;;;4.7;3.3;;;;;;;5.25;67.73633;941.342;;;;
2020/04/06 02:11:04;;;;;;;5;3.3;;;;;;;5.2;68.09961;941.3106;;;;
2020/04/06 02:13:27;;;;;;;6;3.3;;;;;;;5.09;68.33008;941.3158;;;;
2020/04/06 02:16:35;;;;;;;5.2;3.4;;;;;;;5.16;68.05957;941.374;;;;
2020/04/06 02:18:15;;;;;;;4.8;3.3;;;;;;;5.12;68.2666;941.3884;;;;
2020/04/06 02:20:40;;;;;;;5.4;3.6;;;;;;;5.07;68.14746;941.3719;;;;
2020/04/06 02:23:06;;;;;;;4.7;3.4;;;;;;;5.1;68.16309;941.4066;;;;
2020/04/06 02:25:31;;;;;;;4.9;3.9;;;;;;;5.16;67.7666;941.3764;;;;
2020/04/06 02:27:56;;;;;;;4.7;3.3;;;;;;;5.14;67.78613;941.4611;;;;
2020/04/06 02:30:21;;;;;;;3.9;3.5;;;;;;;4.92;68.40625;941.4183;;;;
2020/04/06 02:32:50;;;;;;;7;3.7;;;;;;;4.83;68.72949;941.3884;;;;
2020/04/06 02:35:11;;;;;;;5.1;3.5;;;;;;;4.96;68.33105;941.4306;;;;
2020/04/06 02:37:36;;;;;;;5.5;3.4;;;;;;;4.95;68.21875;941.4374;;;;
2020/04/06 02:40:01;;;;;;;4.1;3.5;;;;;;;5.01;67.99023;941.3933;;;;
2020/04/06 02:42:26;;;;;;;5.5;3.3;;;;;;;4.73;68.7002;941.5139;;;;
2020/04/06 02:44:51;;;;;;;4;3.2;;;;;;;4.78;68.23633;941.5385;;;;
2020/04/06 02:47:17;;;;;;;4.2;3.3;;;;;;;4.85;68.32617;941.5042;;;;
2020/04/06 02:49:42;;;;;;;5;3.4;;;;;;;4.88;67.9707;941.4897;;;;
2020/04/06 02:52:07;;;;;;;5.2;3.6;;;;;;;4.85;68.75488;941.5316;;;;
2020/04/06 02:54:32;;;;;;;6.4;3.8;;;;;;;4.74;68.18359;941.5244;;;;
2020/04/06 02:56:57;;;;;;;8.3;4.6;;;;;;;4.76;68.15332;941.558;;;;
2020/04/06 02:59:23;;;;;;;7.1;4.6;;;;;;;4.83;67.58984;941.6445;;;;
2020/04/06 03:01:48;;;;;;;7.2;4.7;;;;;;;4.86;67.87695;941.6222;;;;
2020/04/06 03:04:13;;;;;;;10;5.6;;;;;;;4.98;67.62598;941.5294;;;;
2020/04/06 03:06:38;;;;;;;12;6.3;;;;;;;4.89;67.45313;941.579;;;;
2020/04/06 03:09:03;;;;;;;12.2;6.2;;;;;;;4.89;67.35156;941.6199;;;;
2020/04/06 03:11:28;;;;;;;13.5;6.7;;;;;;;4.68;67.82422;941.6206;;;;
2020/04/06 03:13:53;;;;;;;28.4;17.1;;;;;;;4.65;67.91016;941.6156;;;;
2020/04/06 03:16:18;;;;;;;18;10.8;;;;;;;4.75;67.83789;941.7542;;;;
2020/04/06 03:18:43;;;;;;;7.9;4.8;;;;;;;4.74;67.18262;941.7524;;;;
2020/04/06 03:21:09;;;;;;;5.7;3.9;;;;;;;4.78;66.72656;941.7302;;;;
2020/04/06 03:23:34;;;;;;;6.8;4.6;;;;;;;4.74;67.03613;941.7997;;;;
2020/04/06 03:25:59;;;;;;;8.6;4.2;;;;;;;4.83;66.82422;941.8072;;;;
2020/04/06 03:28:24;;;;;;;8.2;5;;;;;;;4.89;66.82227;941.788;;;;
2020/04/06 03:30:49;;;;;;;5.8;4.3;;;;;;;4.95;66.39258;941.813;;;;
2020/04/06 03:33:14;;;;;;;6.4;3.8;;;;;;;4.85;66.63672;941.7534;;;;
2020/04/06 03:35:40;;;;;;;11.8;5.2;;;;;;;4.82;66.8125;941.8069;;;;
2020/04/06 03:38:05;;;;;;;6.6;3.8;;;;;;;4.76;66.85742;941.7609;;;;
2020/04/06 03:40:30;;;;;;;5.5;3.7;;;;;;;4.65;66.97559;941.8728;;;;
2020/04/06 03:42:55;;;;;;;8.1;3.8;;;;;;;4.4;67.94922;941.8959;;;;
2020/04/06 03:45:20;;;;;;;7;3.8;;;;;;;4.44;67.87695;941.9174;;;;
2020/04/06 03:47:45;;;;;;;5.6;3.8;;;;;;;4.46;67.66797;941.8647;;;;
2020/04/06 03:50:10;;;;;;;7.6;4.1;;;;;;;4.34;68.32324;941.9528;;;;
2020/04/06 03:52:35;;;;;;;6.5;4.9;;;;;;;4.44;68.2168;941.9341;;;;
2020/04/06 03:55:00;;;;;;;7.9;4.5;;;;;;;4.34;68.78418;941.9954;;;;
2020/04/06 03:57:25;;;;;;;9.1;4.4;;;;;;;4.42;68.58398;942.0351;;;;
2020/04/06 03:59:51;;;;;;;9.8;5.2;;;;;;;4.53;68.39648;942.024;;;;
2020/04/06 04:02:30;;;;;;;9.3;5.5;;;;;;;4.61;68.07227;942.0707;;;;
2020/04/06 04:04:55;;;;;;;13.1;7.5;;;;;;;4.55;67.60156;942.0408;;;;
2020/04/06 04:07:20;;;;;;;23.9;9.7;;;;;;;4.5;67.39063;942.1863;;;;
2020/04/06 04:09:45;;;;;;;18.8;9.7;;;;;;;4.58;67.04492;942.1942;;;;
2020/04/06 04:12:10;;;;;;;20.5;9.2;;;;;;;4.62;66.79102;942.1754;;;;
2020/04/06 04:14:35;;;;;;;17.7;8.3;;;;;;;4.69;66.60938;942.1652;;;;
2020/04/06 04:17:00;;;;;;;14;7.7;;;;;;;4.67;66.67578;942.1741;;;;
2020/04/06 04:19:25;;;;;;;26.4;8.3;;;;;;;4.67;66.4502;942.1457;;;;
2020/04/06 04:21:50;;;;;;;10.2;6.3;;;;;;;4.63;66.54492;942.1228;;;;
2020/04/06 04:24:16;;;;;;;10.4;6.2;;;;;;;4.41;67.1748;942.2419;;;;
2020/04/06 04:26:41;;;;;;;8.8;5.8;;;;;;;4.37;67.16992;942.2891;;;;
2020/04/06 04:29:06;;;;;;;9.4;5.9;;;;;;;4.42;67.10938;942.3055;;;;
2020/04/06 04:31:31;;;;;;;15.5;6.5;;;;;;;4.52;67.1582;942.3044;;;;
2020/04/06 04:34:46;;;;;;;13.5;7.6;;;;;;;4.54;66.8916;942.3146;;;;
2020/04/06 04:37:11;;;;;;;16.5;9.5;;;;;;;4.28;67.88672;942.3597;;;;
2020/04/06 04:40:18;;;;;;;24.7;9.9;;;;;;;4.33;67.77051;942.3837;;;;
2020/04/06 04:42:01;;;;;;;11.8;6.5;;;;;;;4.19;68.0752;942.4565;;;;
2020/04/06 04:44:27;;;;;;;19;7.6;;;;;;;4.27;68.14258;942.4883;;;;
2020/04/06 04:46:52;;;;;;;16.9;7.6;;;;;;;4.33;67.96094;942.4948;;;;
2020/04/06 04:49:17;;;;;;;24;8.6;;;;;;;4.36;67.95605;942.5347;;;;
2020/04/06 04:51:42;;;;;;;21.7;9.2;;;;;;;4.38;67.7998;942.6038;;;;
2020/04/06 04:54:07;;;;;;;18.2;9.4;;;;;;;4.48;67.47949;942.6334;;;;
2020/04/06 04:56:32;;;;;;;17.9;10.2;;;;;;;4.49;67.53711;942.5803;;;;
2020/04/06 04:58:57;;;;;;;20.8;11.8;;;;;;;4.4;67.56738;942.7214;;;;
2020/04/06 05:01:22;;;;;;;20.8;12.8;;;;;;;4.37;67.76465;942.7566;;;;
2020/04/06 05:03:47;;;;;;;23.1;14.4;;;;;;;4.33;67.71387;942.8519;;;;
2020/04/06 05:06:12;;;;;;;20.4;11.4;;;;;;;4.27;67.53613;942.8331;;;;
2020/04/06 05:08:37;;;;;;;24;10.7;;;;;;;4.3;67.77734;942.7972;;;;
2020/04/06 05:11:03;;;;;;;22.2;11.9;;;;;;;4.1;68.20508;942.8334;;;;
2020/04/06 05:13:28;;;;;;;40.9;23.6;;;;;;;4.13;67.97461;942.8797;;;;
2020/04/06 05:15:53;;;;;;;44;22;;;;;;;4.19;68.0625;942.8568;;;;
2020/04/06 05:18:18;;;;;;;43;20;;;;;;;4.24;68.25098;942.9253;;;;
2020/04/06 05:20:43;;;;;;;40.1;19.5;;;;;;;4.35;67.39063;942.985;;;;
2020/04/06 05:23:08;;;;;;;35.2;16.1;;;;;;;4.41;66.92773;943.0168;;;;
2020/04/06 05:25:35;;;;;;;30.9;13.4;;;;;;;4.55;66.375;943.0831;;;;
2020/04/06 05:28:00;;;;;;;26.6;11.7;;;;;;;4.6;65.78613;943.1262;;;;
2020/04/06 05:30:31;;;;;;;26.7;11;;;;;;;4.66;65.69336;943.113;;;;
2020/04/06 05:32:49;;;;;;;25.7;10.8;;;;;;;4.66;65.66113;943.2062;;;;
2020/04/06 05:35:18;;;;;;;24.2;11.9;;;;;;;4.5;66.24219;943.2255;;;;
2020/04/06 05:37:44;;;;;;;30.9;13.5;;;;;;;4.62;66.53223;943.2189;;;;
2020/04/06 05:40:13;;;;;;;41.3;19.6;;;;;;;4.75;66.46289;943.2484;;;;
2020/04/06 05:42:44;;;;;;;57.3;25.5;;;;;;;4.74;66.75293;943.3046;;;;
2020/04/06 05:45:02;;;;;;;93.4;43.1;;;;;;;5.53;64.6416;943.3197;;;;
2020/04/06 05:47:24;;;;;;;133.8;71.7;;;;;;;6.48;61.38184;943.277;;;;
2020/04/06 05:49:45;;;;;;;78.5;44.4;;;;;;;7.36;57.94922;943.2158;;;;
2020/04/06 05:52:11;;;;;;;55.7;31.3;;;;;;;7.92;57.80957;943.2421;;;;
2020/04/06 05:54:36;;;;;;;33.5;14.8;;;;;;;8.04;55.20215;943.2859;;;;
2020/04/06 05:57:01;;;;;;;32;14;;;;;;;8.25;55.05957;943.3078;;;;
2020/04/06 05:59:26;;;;;;;26.8;12.5;;;;;;;8.59;53.77344;943.31;;;;
2020/04/06 06:01:51;;;;;;;26.1;9.3;;;;;;;8.93;52.26855;943.3448;;;;
2020/04/06 06:04:16;;;;;;;23.7;7.8;;;;;;;9.17;52.03613;943.3611;;;;
2020/04/06 06:06:41;;;;;;;22.1;9.6;;;;;;;10.16;50.23926;943.3347;;;;
2020/04/06 06:09:06;;;;;;;29.3;10.9;;;;;;;11.66;45.68652;943.3886;;;;
2020/04/06 06:11:32;;;;;;;25.3;9.4;;;;;;;12.74;42.21973;943.405;;;;
2020/04/06 06:13:57;;;;;;;19.6;8.8;;;;;;;14.1;38.89746;943.3484;;;;
2020/04/06 06:16:22;;;;;;;30.2;8.3;;;;;;;14.63;37.5166;943.392;;;;
2020/04/06 06:18:47;;;;;;;20.3;7.6;;;;;;;15.39;35.67676;943.4416;;;;
2020/04/06 06:21:13;;;;;;;11;5.4;;;;;;;15.81;34.97168;943.3752;;;;
2020/04/06 06:23:38;;;;;;;18;5.5;;;;;;;16.29;34.11816;943.3856;;;;
2020/04/06 06:26:03;;;;;;;18.2;5.1;;;;;;;16.5;32.78027;943.3898;;;;
2020/04/06 06:28:29;;;;;;;11.9;4.5;;;;;;;17.15;31.49609;943.4576;;;;
2020/04/06 06:30:54;;;;;;;12.3;5;;;;;;;17.94;29.96094;943.3359;;;;
2020/04/06 06:33:19;;;;;;;17;7.9;;;;;;;18.28;29.72852;943.3536;;;;
2020/04/06 06:35:45;;;;;;;15.3;7.5;;;;;;;19.13;28.35449;943.3788;;;;
2020/04/06 06:38:10;;;;;;;18.1;7.1;;;;;;;19.87;26.54688;943.3066;;;;
2020/04/06 06:40:35;;;;;;;18.6;7.7;;;;;;;20.73;26.37598;943.4043;;;;
2020/04/06 06:43:00;;;;;;;21.9;8;;;;;;;21.44;24.79199;943.3822;;;;
2020/04/06 06:45:25;;;;;;;19.3;7.9;;;;;;;21.13;25.79199;943.404;;;;
2020/04/06 06:47:50;;;;;;;14.1;5.6;;;;;;;20.02;25.92578;943.3621;;;;
2020/04/06 06:50:16;;;;;;;10.2;4.5;;;;;;;19.11;26.71094;943.4148;;;;
2020/04/06 06:52:41;;;;;;;9.3;3.6;;;;;;;19.9;25.28906;943.3788;;;;
2020/04/06 06:55:06;;;;;;;8;3.2;;;;;;;20.29;24.91406;943.3616;;;;
2020/04/06 06:57:31;;;;;;;5.9;2.7;;;;;;;19.46;24.43652;943.3848;;;;
2020/04/06 06:59:56;;;;;;;11.2;3.1;;;;;;;19.26;25.63672;943.3409;;;;
2020/04/06 07:02:21;;;;;;;6.6;2.7;;;;;;;19.34;25.16406;943.3267;;;;
2020/04/06 07:04:47;;;;;;;8.1;2.6;;;;;;;19.29;25.10254;943.2701;;;;
2020/04/06 07:07:12;;;;;;;8.4;2.6;;;;;;;20.28;24.03906;943.3292;;;;
2020/04/06 07:09:37;;;;;;;6.1;2.5;;;;;;;20.94;23.68848;943.3812;;;;
2020/04/06 07:12:02;;;;;;;5.9;2.7;;;;;;;21.36;23.32422;943.4186;;;;
2020/04/06 07:14:27;;;;;;;7.1;2.5;;;;;;;22.2;23.76758;943.4001;;;;
2020/04/06 07:16:53;;;;;;;6.1;2.2;;;;;;;23.6;22.14844;943.3201;;;;
2020/04/06 07:19:18;;;;;;;7.5;2.5;;;;;;;24.59;20.97168;943.3845;;;;
2020/04/06 07:21:43;;;;;;;10.3;2.3;;;;;;;25.5;20.56543;943.3885;;;;
2020/04/06 07:24:08;;;;;;;4.9;2.1;;;;;;;25.68;20.91602;943.4523;;;;
2020/04/06 07:26:34;;;;;;;3.7;1.9;;;;;;;26.2;18.77539;943.4579;;;;
2020/04/06 07:28:59;;;;;;;8;2;;;;;;;25.48;17.96582;943.4662;;;;
2020/04/06 07:31:24;;;;;;;3.3;2;;;;;;;24.29;18.36523;943.4673;;;;
2020/04/06 07:33:49;;;;;;;4.5;2;;;;;;;24.4;18.33496;943.4528;;;;
2020/04/06 07:36:14;;;;;;;6.2;2.4;;;;;;;24.61;18.56738;943.4822;;;;
2020/04/06 07:38:40;;;;;;;9.1;2.4;;;;;;;26.41;18.25098;943.5246;;;;
2020/04/06 07:41:05;;;;;;;4.4;2.1;;;;;;;27.93;16.41406;943.4966;;;;
2020/04/06 07:43:30;;;;;;;7.6;2.2;;;;;;;29.36;15.47656;943.5016;;;;
2020/04/06 07:45:55;;;;;;;4.3;1.9;;;;;;;29.34;16.17871;943.5142;;;;
2020/04/06 07:48:23;;;;;;;2.5;1.6;;;;;;;29.69;14.9873;943.5048;;;;
2020/04/06 07:50:47;;;;;;;3.7;1.6;;;;;;;29.37;15.04785;943.5269;;;;
2020/04/06 07:53:12;;;;;;;3.7;1.8;;;;;;;29.95;14.94824;943.5287;;;;
2020/04/06 07:55:37;;;;;;;4;1.7;;;;;;;30.26;13.76465;943.5556;;;;
2020/04/06 07:58:03;;;;;;;4.7;1.8;;;;;;;29.68;13.90137;943.5307;;;;
2020/04/06 08:00:28;;;;;;;5.1;2.1;;;;;;;29.24;14.81738;943.5316;;;;
2020/04/06 08:02:53;;;;;;;4.8;2.2;;;;;;;29.63;14.84277;943.5662;;;;
2020/04/06 08:05:18;;;;;;;4;1.8;;;;;;;30.71;13.69434;943.5842;;;;
2020/04/06 08:07:44;;;;;;;4.4;1.8;;;;;;;30.96;13.49902;943.5792;;;;
2020/04/06 08:10:08;;;;;;;4.8;2;;;;;;;31.48;13.17969;943.5569;;;;
2020/04/06 08:12:34;;;;;;;5.3;2.1;;;;;;;30.98;13.00977;943.5469;;;;
2020/04/06 08:14:59;;;;;;;3.4;1.9;;;;;;;30.34;13.33691;943.5865;;;;
2020/04/06 08:17:24;;;;;;;4;2;;;;;;;30.54;13.77344;943.5556;;;;
2020/04/06 08:19:49;;;;;;;3.4;2.1;;;;;;;30.03;12.5166;943.4701;;;;
2020/04/06 08:22:15;;;;;;;3.5;1.8;;;;;;;27.25;14.00488;943.5192;;;;
2020/04/06 08:24:40;;;;;;;3.7;1.7;;;;;;;27.46;14.61719;943.5176;;;;
2020/04/06 08:27:05;;;;;;;3.7;1.9;;;;;;;29.05;13.66797;943.4576;;;;
2020/04/06 08:29:36;;;;;;;3.4;2.1;;;;;;;28.52;13.04492;943.4677;;;;
2020/04/06 08:32:12;;;;;;;2.5;1.9;;;;;;;27.62;13.55371;943.4978;;;;
2020/04/06 08:36:49;;;;;;;8.7;1.9;;;;;;;27.05;15.34961;943.4744;;;;
2020/04/06 08:39:29;;;;;;;3.4;1.7;;;;;;;28.74;15.47949;943.4947;;;;
2020/04/06 08:44:11;;;;;;;3;1.9;;;;;;;30.96;12.90137;943.5064;;;;
2020/04/06 08:46:53;;;;;;;6.8;1.9;;;;;;;30.93;12.09961;943.5225;;;;
2020/04/06 08:49:40;;;;;;;2.4;1.6;;;;;;;30.88;11.5957;943.5131;;;;
2020/04/06 08:53:56;;;;;;;3.4;1.9;;;;;;;31.58;11.96094;943.4899;;;;
2020/04/06 08:56:19;;;;;;;3.2;1.7;;;;;;;30.48;12.25391;943.5399;;;;
2020/04/06 08:58:47;;;;;;;3.4;1.7;;;;;;;30.99;12.08887;943.5381;;;;
2020/04/06 09:01:07;;;;;;;3.6;1.8;;;;;;;32.18;11.62891;943.5231;;;;
2020/04/06 09:03:42;;;;;;;2.4;1.8;;;;;;;33.08;11.08789;943.5073;;;;
2020/04/06 09:06:03;;;;;;;4.1;1.6;;;;;;;33.54;10.3291;943.4878;;;;
2020/04/06 09:10:50;;;;;;;3.8;1.7;;;;;;;32.68;12.43359;943.5404;;;;
2020/04/06 09:13:21;;;;;;;2.7;1.7;;;;;;;32.55;10.15039;943.5428;;;;
2020/04/06 09:15:42;;;;;;;4.3;1.6;;;;;;;32.55;11.98633;943.459;;;;
2020/04/06 09:18:23;;;;;;;2.2;1.5;;;;;;;31.21;13.21973;943.4372;;;;
2020/04/06 09:20:33;;;;;;;3;1.6;;;;;;;30.64;12.96387;943.4475;;;;
2020/04/06 09:22:53;;;;;;;2.4;1.6;;;;;;;30.9;11.40527;943.4734;;;;
2020/04/06 09:25:16;;;;;;;2.6;1.5;;;;;;;31.32;12.0498;943.434;;;;
2020/04/06 09:28:01;;;;;;;2.5;1.6;;;;;;;31.38;11.8125;943.4275;;;;
2020/04/06 09:30:08;;;;;;;4.1;1.7;;;;;;;30.87;12.3252;943.3588;;;;
2020/04/06 09:32:33;;;;;;;3.2;1.4;;;;;;;30.55;12.54297;943.4057;;;;
2020/04/06 09:35:12;;;;;;;4.6;1.8;;;;;;;30.65;12.24707;943.3781;;;;
2020/04/06 09:37:40;;;;;;;3;1.4;;;;;;;30.94;12.15918;943.4288;;;;
2020/04/06 09:39:50;;;;;;;2.7;1.5;;;;;;;30.27;13.74121;943.3745;;;;
2020/04/06 09:42:22;;;;;;;3.2;1.6;;;;;;;30.56;14.39453;943.4222;;;;
2020/04/06 09:44:37;;;;;;;1.9;1.6;;;;;;;30.23;13.71582;943.4084;;;;
2020/04/06 09:46:57;;;;;;;3.1;1.8;;;;;;;29.97;13.70801;943.3492;;;;
2020/04/06 09:49:25;;;;;;;4.8;1.8;;;;;;;29.6;14.11426;943.3344;;;;
2020/04/06 09:51:48;;;;;;;4.1;1.6;;;;;;;29.53;14.69629;943.322;;;;
2020/04/06 09:54:13;;;;;;;2.2;1.7;;;;;;;29.25;15.24707;943.2455;;;;
2020/04/06 09:56:38;;;;;;;2.1;1.7;;;;;;;29.27;15.40234;943.2811;;;;
2020/04/06 09:59:04;;;;;;;4.9;1.6;;;;;;;28.88;14.05566;943.2603;;;;
2020/04/06 10:01:29;;;;;;;5.2;2.1;;;;;;;28.48;15.14941;943.2797;;;;
2020/04/06 10:03:54;;;;;;;4.1;2.3;;;;;;;28.61;15.26074;943.2154;;;;
2020/04/06 10:06:19;;;;;;;9.8;3.8;;;;;;;28.09;15.5752;943.2053;;;;
2020/04/06 10:08:44;;;;;;;30.9;15.1;;;;;;;27.73;15.94336;943.1836;;;;
2020/04/06 10:11:09;;;;;;;6.5;2.4;;;;;;;28.35;14.77637;943.1649;;;;
2020/04/06 10:13:35;;;;;;;2.8;1.7;;;;;;;28.6;14.3916;943.1677;;;;
2020/04/06 10:16:00;;;;;;;3;1.6;;;;;;;28.39;15.59863;943.1208;;;;
2020/04/06 10:18:25;;;;;;;1.8;1.5;;;;;;;28.16;16.11328;943.0955;;;;
2020/04/06 10:20:51;;;;;;;3.5;1.7;;;;;;;27.93;15.68945;943.0627;;;;
2020/04/06 10:23:16;;;;;;;1.9;1.5;;;;;;;28.42;15.06348;943.1408;;;;
2020/04/06 10:25:41;;;;;;;2.3;1.5;;;;;;;28.89;13.8418;943.1545;;;;
2020/04/06 10:28:07;;;;;;;3.6;1.7;;;;;;;28.56;14.48633;943.1375;;;;
2020/04/06 10:30:32;;;;;;;3.6;1.6;;;;;;;28.6;15.01074;943.1183;;;;
2020/04/06 10:33:02;;;;;;;2.6;1.6;;;;;;;28.49;15.66113;943.1373;;;;
2020/04/06 10:35:40;;;;;;;3.6;1.7;;;;;;;28.54;14.98438;943.1021;;;;
2020/04/06 10:38:18;;;;;;;4.5;1.9;;;;;;;28.91;14.84277;943.0671;;;;
2020/04/06 10:40:56;;;;;;;1.9;1.7;;;;;;;28.98;15.04688;943.0405;;;;
2020/04/06 10:46:27;;;;;;;3.1;2.1;;;;;;;29.1;16.1582;943.0288;;;;
2020/04/06 10:49:20;;;;;;;4.1;2.1;;;;;;;28.54;15.79395;943.009;;;;
2020/04/06 10:51:38;;;;;;;3.8;1.8;;;;;;;28.09;15.81348;942.9941;;;;
2020/04/06 10:56:41;;;;;;;7.2;2.1;;;;;;;27.76;17.35742;942.9874;;;;
2020/04/06 10:59:21;;;;;;;3.7;2;;;;;;;27.1;18.07813;942.9927;;;;
2020/04/06 11:02:04;;;;;;;4.1;2.6;;;;;;;27.61;17.30371;943.0201;;;;
2020/04/06 11:04:43;;;;;;;3.2;2.1;;;;;;;27.24;17.41992;942.9928;;;;
2020/04/06 11:07:28;;;;;;;4.6;2.3;;;;;;;27.76;16.60938;942.9709;;;;
2020/04/06 11:10:02;;;;;;;4;2.3;;;;;;;28.41;17.53711;942.9289;;;;
2020/04/06 11:12:17;;;;;;;3.6;2.3;;;;;;;29.19;15.86328;942.9958;;;;
2020/04/06 11:14:42;;;;;;;2.9;2.3;;;;;;;28.51;16.23242;942.9324;;;;
2020/04/06 11:17:07;;;;;;;3.3;2.3;;;;;;;28.97;16.1543;942.9827;;;;
2020/04/06 11:19:32;;;;;;;2.8;2.3;;;;;;;28.45;17.22949;942.969;;;;
2020/04/06 11:22:13;;;;;;;4.3;2.6;;;;;;;28.77;16.96777;942.9487;;;;
2020/04/06 11:24:25;;;;;;;3.9;2.6;;;;;;;28.87;16.49512;942.9235;;;;
2020/04/06 11:26:50;;;;;;;3.6;2.4;;;;;;;29.23;16.30566;942.8495;;;;
2020/04/06 11:29:16;;;;;;;3.5;2.3;;;;;;;28.55;17.54199;942.8971;;;;
2020/04/06 11:31:41;;;;;;;4.4;2.4;;;;;;;30.37;15.23633;942.856;;;;
2020/04/06 11:34:06;;;;;;;5.1;2.2;;;;;;;30.82;15.26367;942.8253;;;;
2020/04/06 11:36:32;;;;;;;2.8;2.3;;;;;;;29.45;17.01758;942.8596;;;;
2020/04/06 11:38:57;;;;;;;4.6;2.5;;;;;;;30.25;16.03223;942.8251;;;;
2020/04/06 11:41:22;;;;;;;4.9;2.5;;;;;;;29.68;15.65527;942.8506;;;;
2020/04/06 11:43:47;;;;;;;6.1;2.8;;;;;;;29.4;18.23047;942.8536;;;;
2020/04/06 11:46:12;;;;;;;3.4;2.5;;;;;;;29.3;16.70215;942.8544;;;;
2020/04/06 11:48:37;;;;;;;4.7;2.3;;;;;;;28.92;17.06836;942.8117;;;;
2020/04/06 11:51:02;;;;;;;5.1;2.5;;;;;;;29.87;16.06641;942.8219;;;;
2020/04/06 11:53:27;;;;;;;8.2;2.8;;;;;;;29.07;16.4668;942.7635;;;;
2020/04/06 11:55:52;;;;;;;4.6;2.7;;;;;;;28.66;17.36816;942.7645;;;;
2020/04/06 11:58:17;;;;;;;9.8;3.1;;;;;;;28.13;17.3125;942.7636;;;;
2020/04/06 12:00:42;;;;;;;4.2;2.7;;;;;;;29.75;15.64551;942.8567;;;;
2020/04/06 12:03:08;;;;;;;5.8;2.6;;;;;;;29.86;15.64844;942.8508;;;;
2020/04/06 12:05:33;;;;;;;3.3;2.6;;;;;;;31.23;14.09277;942.8337;;;;
2020/04/06 12:08:00;;;;;;;6.1;2.5;;;;;;;30.97;15.08984;942.7679;;;;
2020/04/06 12:10:25;;;;;;;4.3;2.4;;;;;;;30.22;17.02246;942.798;;;;
2020/04/06 12:12:50;;;;;;;5.2;2.5;;;;;;;30.81;15.38281;942.803;;;;
2020/04/06 12:15:16;;;;;;;3.7;2.6;;;;;;;30.28;15.56836;942.8262;;;;
2020/04/06 12:17:40;;;;;;;3.3;2.5;;;;;;;31.74;14.94727;942.7416;;;;
2020/04/06 12:20:05;;;;;;;5;2.7;;;;;;;32.25;13.90918;942.7313;;;;
2020/04/06 12:22:30;;;;;;;4.5;2.3;;;;;;;32.36;13.3125;942.7197;;;;
2020/04/06 12:24:59;;;;;;;4.2;2.4;;;;;;;31.09;14.79395;942.8142;;;;
2020/04/06 12:27:24;;;;;;;5.8;2.5;;;;;;;31.84;14.4834;942.7693;;;;
2020/04/06 12:29:49;;;;;;;2.9;2.3;;;;;;;32.42;13.375;942.7161;;;;
2020/04/06 12:32:14;;;;;;;4.6;2.4;;;;;;;32.06;14.82617;942.7698;;;;
2020/04/06 12:34:40;;;;;;;5.3;2.4;;;;;;;32.77;14.11719;942.813;;;;
2020/04/06 12:37:05;;;;;;;3.7;2.2;;;;;;;32.24;13.89648;942.82;;;;
2020/04/06 12:39:37;;;;;;;3.8;2.4;;;;;;;31.75;14.20508;942.728;;;;
2020/04/06 12:42:02;;;;;;;3.8;2.6;;;;;;;29.01;16.10742;942.7509;;;;
2020/04/06 12:47:01;;;;;;;4.8;2.4;;;;;;;28.76;17.64551;942.741;;;;
2020/04/06 12:49:24;;;;;;;2.9;2.5;;;;;;;28.69;17.79785;942.7654;;;;
2020/04/06 12:51:38;;;;;;;5.5;2.5;;;;;;;28.92;17.27148;942.7592;;;;
2020/04/06 12:54:03;;;;;;;5.3;2.5;;;;;;;28.98;18.07129;942.7125;;;;
2020/04/06 12:56:28;;;;;;;4.6;2.7;;;;;;;29.55;16.0791;942.7079;;;;
2020/04/06 12:59:02;;;;;;;6;2.8;;;;;;;27.85;18.80957;942.6788;;;;
2020/04/06 13:01:43;;;;;;;5.2;2.8;;;;;;;27.18;18.5918;942.7101;;;;
2020/04/06 13:11:20;;;;;;;8.9;3.4;;;;;;;26.01;20.44629;942.6422;;;;
2020/04/06 13:13:54;;;;;;;3.8;2.9;;;;;;;26.27;19.99805;942.6909;;;;
2020/04/06 13:16:03;;;;;;;4.7;2.9;;;;;;;26.39;20.29883;942.6375;;;;
2020/04/06 13:18:37;;;;;;;5.8;3.2;;;;;;;25.96;21.58008;942.6239;;;;
2020/04/06 13:20:56;;;;;;;5.5;3;;;;;;;25.95;21.48438;942.6649;;;;
2020/04/06 13:23:14;;;;;;;5;3;;;;;;;26.04;20.66211;942.6834;;;;
2020/04/06 13:38:14;;;;;;;5.8;3;;;;;;;25.3;21.84375;942.6325;;;;
2020/04/06 13:41:10;;;;;;;6;3.5;;;;;;;24.47;23.55859;942.6437;;;;
2020/04/06 13:43:09;;;;;;;4.9;3.6;;;;;;;23.97;23.40332;942.5931;;;;
2020/04/06 13:46:06;;;;;;;7.4;3.5;;;;;;;23.28;24.82422;942.5756;;;;
2020/04/06 13:48:01;;;;;;;7.6;3.3;;;;;;;23.42;23.83301;942.6639;;;;
2020/04/06 13:50:28;;;;;;;6;3.4;;;;;;;23.1;23.72168;942.6372;;;;
2020/04/06 13:52:46;;;;;;;8.3;3.8;;;;;;;23.17;24.94727;942.6799;;;;
2020/04/06 13:57:31;;;;;;;7.7;3.3;;;;;;;23.05;23.73047;942.6502;;;;
2020/04/06 13:59:51;;;;;;;8.4;3.7;;;;;;;23.17;23.16113;942.6026;;;;
2020/04/06 14:02:12;;;;;;;4.8;3.2;;;;;;;23.28;24.14258;942.5538;;;;
2020/04/06 14:04:37;;;;;;;5.1;3.4;;;;;;;22.93;24.98145;942.5937;;;;
2020/04/06 14:07:02;;;;;;;7.1;3.3;;;;;;;22.73;25.56836;942.6089;;;;
2020/04/06 14:09:27;;;;;;;7.9;3.6;;;;;;;22.71;25.49707;942.6146;;;;
2020/04/06 14:11:52;;;;;;;6.7;3.5;;;;;;;22.59;24.97363;942.5748;;;;
2020/04/06 14:14:17;;;;;;;10.1;3.9;;;;;;;22.87;24.28516;942.5469;;;;
2020/04/06 14:16:42;;;;;;;8.2;3.1;;;;;;;;;;;;;
2020/04/06 14:19:17;;;;;;;7.3;3.2;;;;;;;22.69;25.49609;942.559;;;;
2020/04/06 14:21:39;;;;;;;7.1;3.3;;;;;;;22.26;26.69043;942.5591;;;;
2020/04/06 14:24:04;;;;;;;6.8;3.1;;;;;;;22.34;26.4375;942.6307;;;;
2020/04/06 14:26:30;;;;;;;9.3;3;;;;;;;22.56;25.95703;942.575;;;;
2020/04/06 14:28:55;;;;;;;6;3.4;;;;;;;22.51;26.31836;942.5438;;;;
2020/04/06 14:31:21;;;;;;;8.8;3.5;;;;;;;22.1;25.47363;942.5901;;;;
2020/04/06 14:33:46;;;;;;;5.1;3.4;;;;;;;21.93;26.7998;942.6649;;;;
2020/04/06 14:36:11;;;;;;;7.5;3.3;;;;;;;21.83;25.96191;942.64;;;;
2020/04/06 14:38:36;;;;;;;7.2;3.5;;;;;;;21.88;25.92969;942.6151;;;;
2020/04/06 14:41:02;;;;;;;7.7;3.4;;;;;;;21.98;26.18164;942.6699;;;;
2020/04/06 14:43:26;;;;;;;5.7;3.3;;;;;;;21.91;25.97852;942.633;;;;
2020/04/06 14:45:52;;;;;;;4.6;3.2;;;;;;;22.03;26.25391;942.6836;;;;
2020/04/06 14:48:17;;;;;;;5.4;3.2;;;;;;;22.03;26.20801;942.6356;;;;
2020/04/06 14:50:42;;;;;;;4.4;3.3;;;;;;;21.84;27.49707;942.6074;;;;
2020/04/06 14:53:07;;;;;;;5.7;3.3;;;;;;;21.77;25.94629;942.595;;;;
2020/04/06 14:55:32;;;;;;;6.5;3.2;;;;;;;21.92;25.55664;942.5369;;;;
2020/04/06 14:57:58;;;;;;;5.8;3.3;;;;;;;21.98;25.53711;942.54;;;;
2020/04/06 15:00:44;;;;;;;7.1;3.6;;;;;;;22.09;25.84863;942.6164;;;;